Time;durP1;ratioP1;P1;durP2;ratioP2;P2;SDS_P1;SDS_P2;PMS_P1;PMS_P2;Temp;Humidity;BMP_temperature;BMP_pressure;BME280_temperature;BME280_humidity;BME280_pressure;Samples;Min_cycle;Max_cycle;Signal;HPM_P1;HPM_P2
2021/12/03 00:01:10;;;;;;;36.37;23.53;;;0.50;99.90;;;;;;5014048;28;20400;-74
2021/12/03 00:03:37;;;;;;;34.60;23.50;;;0.50;99.90;;;;;;5012589;28;20483;-74
2021/12/03 00:06:03;;;;;;;31.00;21.83;;;0.60;99.90;;;;;;5011696;28;20996;-74
2021/12/03 00:08:29;;;;;;;33.80;23.35;;;0.50;99.90;;;;;;5014192;28;20471;-74
2021/12/03 00:10:58;;;;;;;34.83;22.73;;;0.40;99.90;;;;;;5013915;28;20393;-74
2021/12/03 00:13:26;;;;;;;34.08;22.70;;;0.50;99.90;;;;;;5013933;28;20421;-73
2021/12/03 00:15:53;;;;;;;36.30;24.05;;;0.60;99.90;;;;;;5014278;28;20384;-73
2021/12/03 00:18:19;;;;;;;37.85;23.77;;;0.60;99.90;;;;;;5014669;28;20750;-73
2021/12/03 00:20:45;;;;;;;40.30;24.23;;;0.60;99.90;;;;;;5014593;28;20459;-74
2021/12/03 00:23:12;;;;;;;38.33;24.55;;;0.60;99.90;;;;;;5014163;28;20432;-74
2021/12/03 00:25:38;;;;;;;38.70;24.52;;;0.70;99.90;;;;;;5013467;28;20774;-75
2021/12/03 00:28:05;;;;;;;40.03;24.27;;;0.60;99.90;;;;;;5015376;28;20391;-74
2021/12/03 00:30:31;;;;;;;41.47;25.43;;;0.70;99.90;;;;;;5013969;28;20750;-74
2021/12/03 00:32:56;;;;;;;42.88;25.90;;;0.70;99.90;;;;;;5014060;28;20423;-73
2021/12/03 00:35:22;;;;;;;41.83;26.40;;;0.90;99.90;;;;;;5013998;28;20432;-75
2021/12/03 00:37:49;;;;;;;45.22;25.40;;;1.00;99.90;;;;;;5014382;28;20949;-72
2021/12/03 00:40:19;;;;;;;41.35;26.98;;;1.00;99.90;;;;;;5014163;28;20429;-73
2021/12/03 00:42:44;;;;;;;43.45;26.20;;;1.00;99.90;;;;;;5013644;28;20503;-74
2021/12/03 00:45:11;;;;;;;38.07;24.00;;;1.20;99.90;;;;;;5013646;28;20488;-73
2021/12/03 00:47:38;;;;;;;41.67;26.02;;;1.20;99.90;;;;;;5013912;28;20408;-74
2021/12/03 00:50:05;;;;;;;43.40;25.08;;;1.30;99.90;;;;;;5012767;28;20419;-74
2021/12/03 00:52:31;;;;;;;38.55;24.98;;;1.30;99.90;;;;;;5015383;28;20409;-73
2021/12/03 00:54:56;;;;;;;37.33;24.17;;;1.30;99.90;;;;;;5013878;28;20430;-74
2021/12/03 00:57:22;;;;;;;37.28;25.10;;;1.20;99.90;;;;;;5014181;28;20392;-74
2021/12/03 00:59:48;;;;;;;37.22;24.30;;;1.30;99.90;;;;;;5013905;28;20389;-74
2021/12/03 01:02:13;;;;;;;43.63;25.85;;;1.30;99.90;;;;;;5012637;28;20415;-73
2021/12/03 01:04:39;;;;;;;50.90;27.30;;;1.30;99.90;;;;;;5013364;28;20392;-74
2021/12/03 01:07:05;;;;;;;41.27;25.67;;;1.50;99.90;;;;;;5013114;28;20385;-73
2021/12/03 01:09:33;;;;;;;40.90;25.73;;;1.60;99.90;;;;;;5013704;28;20408;-74
2021/12/03 01:11:59;;;;;;;42.75;26.02;;;1.70;99.90;;;;;;5013321;28;20400;-74
2021/12/03 01:14:25;;;;;;;42.60;26.03;;;1.80;99.90;;;;;;5003792;28;20536;-74
2021/12/03 01:16:51;;;;;;;43.88;27.02;;;1.90;99.90;;;;;;4992693;28;20430;-73
2021/12/03 01:19:17;;;;;;;43.57;27.03;;;2.10;99.90;;;;;;4992598;28;20390;-73
2021/12/03 01:21:43;;;;;;;46.20;26.80;;;2.20;99.90;;;;;;4997039;28;20825;-73
2021/12/03 01:24:09;;;;;;;42.70;27.20;;;2.20;99.90;;;;;;5013623;28;20385;-71
2021/12/03 01:26:35;;;;;;;45.28;27.60;;;2.30;99.90;;;;;;5013582;28;20408;-72
2021/12/03 01:29:02;;;;;;;45.75;27.77;;;2.40;99.90;;;;;;5014005;28;20806;-72
2021/12/03 01:31:28;;;;;;;51.28;29.20;;;2.40;99.90;;;;;;5014265;28;20385;-74
2021/12/03 01:33:54;;;;;;;54.23;28.00;;;2.40;99.90;;;;;;5014618;28;20400;-73
2021/12/03 01:36:20;;;;;;;49.20;29.40;;;2.50;99.90;;;;;;5014159;28;20403;-74
2021/12/03 01:38:45;;;;;;;52.67;28.20;;;4.30;99.90;;;;;;5014583;28;20396;-74
2021/12/03 01:41:12;;;;;;;43.77;27.10;;;2.50;99.90;;;;;;5015591;28;20404;-73
2021/12/03 01:43:39;;;;;;;49.80;28.50;;;2.70;97.10;;;;;;5016030;28;20820;-74
2021/12/03 01:46:08;;;;;;;48.70;29.02;;;2.70;97.90;;;;;;5017405;28;20404;-74
2021/12/03 01:48:35;;;;;;;51.13;29.23;;;2.60;98.80;;;;;;5015773;28;20727;-74
2021/12/03 01:51:01;;;;;;;49.40;28.67;;;2.60;99.90;;;;;;5014342;28;20425;-73
2021/12/03 01:53:28;;;;;;;45.33;28.07;;;2.60;99.90;;;;;;5014401;28;20392;-74
2021/12/03 01:55:57;;;;;;;45.10;28.00;;;2.70;99.90;;;;;;5016496;28;20424;-74
2021/12/03 01:58:22;;;;;;;52.63;29.00;;;2.70;99.90;;;;;;5015497;28;20506;-74
2021/12/03 02:00:55;;;;;;;48.85;28.13;;;2.80;99.90;;;;;;5013688;28;20401;-74
2021/12/03 02:03:27;;;;;;;58.30;31.00;;;2.90;99.90;;;;;;5013014;28;20413;-74
2021/12/03 02:05:54;;;;;;;53.15;29.83;;;3.00;99.70;;;;;;5007896;28;20398;-75
2021/12/03 02:08:20;;;;;;;55.50;30.33;;;3.10;97.50;;;;;;4993353;28;20469;-74
2021/12/03 02:10:46;;;;;;;62.45;32.78;;;3.10;93.90;;;;;;4993162;28;20441;-74
2021/12/03 02:13:13;;;;;;;57.58;30.63;;;3.20;89.80;;;;;;4993231;28;20386;-75
2021/12/03 02:15:41;;;;;;;57.10;30.37;;;3.20;85.10;;;;;;5007889;28;20401;-74
2021/12/03 02:18:08;;;;;;;57.83;30.15;;;3.20;88.40;;;;;;5011851;28;20393;-74
2021/12/03 02:20:34;;;;;;;59.40;31.88;;;3.30;83.50;;;;;;5012166;28;20479;-74
2021/12/03 02:23:00;;;;;;;61.17;29.63;;;3.30;82.90;;;;;;5011311;28;21051;-73
2021/12/03 02:25:26;;;;;;;55.10;30.23;;;3.30;83.20;;;;;;5012461;28;20401;-73
2021/12/03 02:27:56;;;;;;;58.00;30.15;;;3.30;82.40;;;;;;5012753;28;20447;-74
2021/12/03 02:30:23;;;;;;;51.63;29.27;;;3.40;81.80;;;;;;5012515;28;20385;-73
2021/12/03 02:32:49;;;;;;;64.60;31.65;;;3.40;83.40;;;;;;5011471;28;20427;-73
2021/12/03 02:35:21;;;;;;;62.03;30.58;;;3.30;83.80;;;;;;5011788;28;20750;-74
2021/12/03 02:37:47;;;;;;;56.65;30.15;;;3.30;85.60;;;;;;5012442;28;20389;-74
2021/12/03 02:40:14;;;;;;;58.83;28.90;;;3.40;83.60;;;;;;5009642;28;20795;-74
2021/12/03 02:42:40;;;;;;;57.72;28.15;;;3.40;82.60;;;;;;5010498;28;20432;-75
2021/12/03 02:45:07;;;;;;;56.37;27.80;;;3.40;80.50;;;;;;5010332;28;20420;-74
2021/12/03 02:47:32;;;;;;;60.13;27.17;;;3.40;78.50;;;;;;5011558;28;20397;-74
2021/12/03 02:49:58;;;;;;;55.13;26.80;;;3.50;78.10;;;;;;5011516;28;20383;-75
2021/12/03 02:52:23;;;;;;;58.70;27.77;;;3.50;78.90;;;;;;5010585;28;20435;-74
2021/12/03 02:54:49;;;;;;;58.40;27.00;;;3.40;77.80;;;;;;5011406;28;20450;-75
2021/12/03 02:57:15;;;;;;;55.10;26.70;;;3.50;77.50;;;;;;5009970;28;20406;-75
2021/12/03 02:59:41;;;;;;;57.65;27.10;;;3.50;77.10;;;;;;5011452;28;20416;-74
2021/12/03 03:02:06;;;;;;;58.20;27.73;;;3.50;77.30;;;;;;5011447;28;21001;-73
2021/12/03 03:04:32;;;;;;;58.35;27.02;;;3.40;78.50;;;;;;5011854;28;20526;-73
2021/12/03 03:06:59;;;;;;;60.70;27.17;;;3.40;79.00;;;;;;5011567;28;20463;-74
2021/12/03 03:09:25;;;;;;;53.60;27.23;;;3.40;81.20;;;;;;5011436;28;20392;-73
2021/12/03 03:11:51;;;;;;;56.17;26.35;;;3.50;81.00;;;;;;5002988;28;20465;-73
2021/12/03 03:14:17;;;;;;;51.67;26.55;;;3.40;81.20;;;;;;4991761;28;20417;-74
2021/12/03 03:16:43;;;;;;;55.13;25.80;;;3.50;81.60;;;;;;4990757;28;20394;-74
2021/12/03 03:19:16;;;;;;;54.25;25.08;;;3.60;79.10;;;;;;5003895;28;20407;-75
2021/12/03 03:21:43;;;;;;;52.53;25.13;;;3.70;77.80;;;;;;5013145;28;20447;-74
2021/12/03 03:24:09;;;;;;;48.38;24.38;;;3.60;77.80;;;;;;5020026;28;20397;-74
2021/12/03 03:26:37;;;;;;;59.33;25.25;;;3.60;76.60;;;;;;5012861;28;20398;-74
2021/12/03 03:29:05;;;;;;;53.20;25.30;;;3.70;76.60;;;;;;5011660;28;20435;-74
2021/12/03 03:31:35;;;;;;;52.40;23.93;;;3.60;77.60;;;;;;5010649;28;20966;-73
2021/12/03 03:34:02;;;;;;;55.38;24.75;;;3.70;74.90;;;;;;5010035;28;20487;-74
2021/12/03 03:36:32;;;;;;;50.80;24.65;;;3.70;74.30;;;;;;5010008;28;20388;-75
2021/12/03 03:38:58;;;;;;;51.13;24.77;;;3.70;76.60;;;;;;5013846;28;20893;-74
2021/12/03 03:41:24;;;;;;;51.57;23.77;;;3.80;74.10;;;;;;5012202;28;20427;-74
2021/12/03 03:43:50;;;;;;;50.58;24.45;;;3.80;74.50;;;;;;5011590;28;20471;-74
2021/12/03 03:46:16;;;;;;;46.90;25.55;;;3.70;76.50;;;;;;5012339;28;20997;-74
2021/12/03 03:48:43;;;;;;;51.55;24.80;;;3.70;76.90;;;;;;5011569;28;20383;-74
2021/12/03 03:51:09;;;;;;;60.28;24.48;;;3.70;76.50;;;;;;5011502;28;20393;-74
2021/12/03 03:53:36;;;;;;;50.47;23.95;;;3.90;74.60;;;;;;5011423;28;20407;-74
2021/12/03 03:56:02;;;;;;;48.90;23.02;;;3.80;74.20;;;;;;5012576;28;20482;-76
2021/12/03 03:58:28;;;;;;;50.17;22.95;;;3.90;72.40;;;;;;5012937;28;20805;-76
2021/12/03 04:00:53;;;;;;;46.95;23.65;;;3.80;72.90;;;;;;5013227;28;20392;-73
2021/12/03 04:03:19;;;;;;;52.10;22.33;;;3.80;74.00;;;;;;5012733;28;20913;-73
2021/12/03 04:05:44;;;;;;;45.93;23.20;;;3.80;74.20;;;;;;5012929;28;20471;-74
2021/12/03 04:08:10;;;;;;;42.87;21.63;;;3.80;73.90;;;;;;5011210;28;20393;-74
2021/12/03 04:10:36;;;;;;;44.03;22.00;;;3.80;72.80;;;;;;5011521;28;20416;-73
2021/12/03 04:13:02;;;;;;;39.03;21.73;;;3.80;72.50;;;;;;5010470;28;20412;-73
2021/12/03 04:15:28;;;;;;;44.28;21.67;;;3.90;69.90;;;;;;5010704;28;20381;-73
2021/12/03 04:17:53;;;;;;;43.47;22.00;;;3.80;70.80;;;;;;5010457;28;20960;-74
2021/12/03 04:20:20;;;;;;;46.43;21.57;;;3.80;73.00;;;;;;5011201;28;20477;-73
2021/12/03 04:22:46;;;;;;;51.00;23.23;;;3.90;72.30;;;;;;5003470;28;20769;-73
2021/12/03 04:25:15;;;;;;;44.17;22.40;;;3.80;72.00;;;;;;4990134;28;20402;-73
2021/12/03 04:27:42;;;;;;;43.22;21.70;;;3.80;72.70;;;;;;5000024;28;20400;-73
2021/12/03 04:30:12;;;;;;;43.22;21.92;;;3.80;72.60;;;;;;5011106;28;20432;-74
2021/12/03 04:32:40;;;;;;;49.42;21.77;;;3.90;73.00;;;;;;5010565;28;20377;-73
2021/12/03 04:35:07;;;;;;;47.45;21.10;;;3.90;70.60;;;;;;5010795;28;20408;-74
2021/12/03 04:37:32;;;;;;;45.67;21.03;;;4.00;66.40;;;;;;5009292;28;20404;-74
2021/12/03 04:39:58;;;;;;;39.22;20.40;;;3.90;67.70;;;;;;5009768;28;20411;-74
2021/12/03 04:42:23;;;;;;;44.63;22.40;;;4.00;69.00;;;;;;5011124;28;20920;-74
2021/12/03 04:44:49;;;;;;;48.63;21.02;;;4.00;68.40;;;;;;5013883;28;20572;-75
2021/12/03 04:47:15;;;;;;;41.27;21.60;;;3.90;70.10;;;;;;5013504;28;20466;-74
2021/12/03 04:49:40;;;;;;;40.37;19.33;;;4.00;71.50;;;;;;5013725;28;20384;-74
2021/12/03 04:52:06;;;;;;;42.13;21.15;;;4.00;67.00;;;;;;5013317;28;20407;-74
2021/12/03 04:54:32;;;;;;;40.08;21.20;;;4.00;68.60;;;;;;5013765;28;20405;-74
2021/12/03 04:56:58;;;;;;;39.40;19.60;;;4.10;68.20;;;;;;5013653;28;20812;-74
2021/12/03 04:59:25;;;;;;;44.72;20.95;;;4.00;66.60;;;;;;5013723;28;20424;-74
2021/12/03 05:01:54;;;;;;;41.47;19.10;;;4.00;66.60;;;;;;5013521;28;20519;-74
2021/12/03 05:04:20;;;;;;;39.95;20.10;;;4.00;66.20;;;;;;5013701;28;20389;-73
2021/12/03 05:07:04;;;;;;;37.93;19.67;;;4.00;67.00;;;;;;5012914;28;20459;-74
2021/12/03 05:09:29;;;;;;;40.85;20.25;;;3.90;68.20;;;;;;5010843;28;20849;-75
2021/12/03 05:11:55;;;;;;;38.40;18.80;;;4.10;68.10;;;;;;5013438;28;20423;-75
2021/12/03 05:14:21;;;;;;;45.07;19.93;;;4.10;67.10;;;;;;5013750;28;20392;-75
2021/12/03 05:16:48;;;;;;;45.80;20.03;;;4.10;67.50;;;;;;5013550;28;20420;-75
2021/12/03 05:19:15;;;;;;;43.53;19.25;;;4.20;65.70;;;;;;4994254;28;20756;-75
2021/12/03 05:21:40;;;;;;;41.75;19.75;;;4.20;65.60;;;;;;5015731;28;20395;-77
2021/12/03 05:24:07;;;;;;;36.40;19.27;;;4.20;65.70;;;;;;5013599;28;20480;-75
2021/12/03 05:26:32;;;;;;;50.08;19.95;;;4.10;67.00;;;;;;5013623;28;20395;-75
2021/12/03 05:28:58;;;;;;;36.55;19.55;;;4.20;66.80;;;;;;5013080;28;20881;-74
2021/12/03 05:31:23;;;;;;;45.43;20.43;;;4.20;67.40;;;;;;5013768;28;20396;-74
2021/12/03 05:33:49;;;;;;;40.80;20.30;;;4.20;65.80;;;;;;5011646;28;20885;-75
2021/12/03 05:36:15;;;;;;;41.60;20.53;;;4.10;66.80;;;;;;5013082;28;20400;-75
2021/12/03 05:38:40;;;;;;;44.17;20.40;;;4.10;67.00;;;;;;5012648;28;20904;-73
2021/12/03 05:41:06;;;;;;;44.17;21.23;;;4.20;66.80;;;;;;5011733;28;20932;-75
2021/12/03 05:43:31;;;;;;;44.45;19.33;;;4.20;66.30;;;;;;5012917;28;20846;-75
2021/12/03 05:45:57;;;;;;;44.00;21.00;;;4.20;66.40;;;;;;5013085;28;20391;-74
2021/12/03 05:48:23;;;;;;;46.70;22.00;;;4.20;66.30;;;;;;5012110;28;20428;-74
2021/12/03 05:50:50;;;;;;;41.97;21.30;;;4.20;67.60;;;;;;5013094;28;20387;-75
2021/12/03 05:53:16;;;;;;;46.72;20.45;;;4.20;67.50;;;;;;5012908;28;20471;-74
2021/12/03 05:55:41;;;;;;;51.83;21.92;;;4.20;67.60;;;;;;5011902;28;20508;-74
2021/12/03 05:58:07;;;;;;;44.22;21.27;;;4.20;67.80;;;;;;5012596;28;20409;-74
2021/12/03 06:00:38;;;;;;;44.67;21.40;;;4.30;67.00;;;;;;5012978;28;20753;-74
2021/12/03 06:03:04;;;;;;;42.73;20.83;;;4.30;66.10;;;;;;5013230;28;20567;-74
2021/12/03 06:05:32;;;;;;;49.03;22.48;;;4.30;66.50;;;;;;5013163;28;20391;-73
2021/12/03 06:07:58;;;;;;;47.60;20.73;;;4.30;66.60;;;;;;5014364;28;20392;-73
2021/12/03 06:10:24;;;;;;;50.53;21.77;;;4.40;65.90;;;;;;5021317;28;20377;-75
2021/12/03 06:12:50;;;;;;;46.28;22.52;;;4.30;67.70;;;;;;5015327;28;20400;-75
2021/12/03 06:15:17;;;;;;;49.92;22.65;;;4.30;66.50;;;;;;5012795;28;20389;-75
2021/12/03 06:17:42;;;;;;;49.85;21.55;;;4.40;68.10;;;;;;5012327;28;20401;-75
2021/12/03 06:20:09;;;;;;;48.03;21.42;;;4.40;66.10;;;;;;5012980;28;20395;-75
2021/12/03 06:22:36;;;;;;;43.35;20.35;;;4.50;65.00;;;;;;5012395;28;20404;-76
2021/12/03 06:25:02;;;;;;;47.15;21.02;;;4.50;63.00;;;;;;5012494;28;20392;-75
2021/12/03 06:27:30;;;;;;;46.45;20.50;;;4.50;63.20;;;;;;5011017;28;20834;-75
2021/12/03 06:29:56;;;;;;;48.30;21.07;;;4.40;65.70;;;;;;5012446;28;20447;-75
2021/12/03 06:32:23;;;;;;;70.47;23.42;;;4.50;64.70;;;;;;5012026;28;20404;-76
2021/12/03 06:34:49;;;;;;;47.92;23.20;;;4.50;64.60;;;;;;5011882;28;20405;-75
2021/12/03 06:37:14;;;;;;;52.70;23.17;;;4.50;67.20;;;;;;5012200;28;20462;-75
2021/12/03 06:39:40;;;;;;;52.37;22.80;;;4.50;65.70;;;;;;5012075;28;20389;-75
2021/12/03 06:42:06;;;;;;;49.13;22.85;;;4.50;65.90;;;;;;5011689;28;20400;-75
2021/12/03 06:44:32;;;;;;;49.75;22.13;;;4.50;66.00;;;;;;5012495;28;20385;-74
2021/12/03 06:47:00;;;;;;;58.08;23.20;;;4.50;66.90;;;;;;5009838;28;20411;-75
2021/12/03 06:49:28;;;;;;;57.92;23.20;;;4.50;66.90;;;;;;5011711;28;20435;-74
2021/12/03 06:51:59;;;;;;;48.55;22.63;;;4.50;67.50;;;;;;5011991;28;20384;-75
2021/12/03 06:54:28;;;;;;;59.38;22.98;;;4.50;68.00;;;;;;5010761;28;20414;-75
2021/12/03 06:56:54;;;;;;;39.97;22.73;;;4.60;67.70;;;;;;5011651;28;20432;-75
2021/12/03 06:59:22;;;;;;;51.50;21.40;;;4.70;66.50;;;;;;5010499;28;20444;-70
2021/12/03 07:01:49;;;;;;;47.70;21.33;;;4.60;64.30;;;;;;5010469;28;20530;-70
2021/12/03 07:04:15;;;;;;;49.38;21.52;;;4.60;64.10;;;;;;5009273;28;20393;-69
2021/12/03 07:06:41;;;;;;;47.75;20.80;;;4.60;64.70;;;;;;5010671;28;20735;-70
2021/12/03 07:09:06;;;;;;;41.87;17.47;;;4.60;63.90;;;;;;5011136;28;20813;-70
2021/12/03 07:11:33;;;;;;;41.88;18.98;;;4.70;62.70;;;;;;5010483;28;20392;-70
2021/12/03 07:13:59;;;;;;;42.03;18.27;;;4.80;61.00;;;;;;5012529;28;20393;-75
2021/12/03 07:16:25;;;;;;;41.57;17.43;;;4.80;61.90;;;;;;5021144;28;20881;-71
2021/12/03 07:18:51;;;;;;;42.33;19.02;;;4.80;59.40;;;;;;5014233;28;20420;-70
2021/12/03 07:21:16;;;;;;;38.30;16.20;;;4.70;61.00;;;;;;5012193;28;20401;-72
2021/12/03 07:23:42;;;;;;;41.23;15.97;;;4.70;61.10;;;;;;5018487;28;20500;-71
2021/12/03 07:26:08;;;;;;;37.90;14.77;;;4.80;60.80;;;;;;5007856;28;20397;-73
2021/12/03 07:28:34;;;;;;;41.90;16.15;;;4.70;58.80;;;;;;5011724;28;20397;-72
2021/12/03 07:30:59;;;;;;;30.88;13.63;;;4.80;59.10;;;;;;5010166;28;20877;-73
2021/12/03 07:33:27;;;;;;;36.95;14.30;;;4.80;58.10;;;;;;5009789;28;20518;-72
2021/12/03 07:35:53;;;;;;;33.22;14.00;;;4.80;58.20;;;;;;5011806;28;20878;-72
2021/12/03 07:38:18;;;;;;;40.37;14.00;;;4.80;58.40;;;;;;5010120;28;20486;-73
2021/12/03 07:40:45;;;;;;;35.40;14.40;;;4.70;58.60;;;;;;5010205;28;20755;-73
2021/12/03 07:43:11;;;;;;;34.90;12.13;;;4.70;59.30;;;;;;5010441;28;20418;-70
2021/12/03 07:45:37;;;;;;;26.33;12.70;;;4.70;58.50;;;;;;5005916;28;20417;-71
2021/12/03 07:48:04;;;;;;;27.13;11.03;;;4.70;57.20;;;;;;5009905;28;20901;-73
2021/12/03 07:50:33;;;;;;;36.90;10.43;;;4.70;56.40;;;;;;5025299;28;20928;-72
2021/12/03 07:52:59;;;;;;;23.95;10.30;;;4.70;56.10;;;;;;5009196;28;20448;-72
2021/12/03 07:55:24;;;;;;;32.65;11.80;;;4.80;57.40;;;;;;5010047;28;20404;-73
2021/12/03 07:57:52;;;;;;;29.17;10.80;;;4.70;56.50;;;;;;5010447;28;20540;-74
2021/12/03 08:00:18;;;;;;;28.27;11.17;;;4.60;57.20;;;;;;5010247;28;20874;-74
2021/12/03 08:02:44;;;;;;;23.88;10.27;;;4.70;55.40;;;;;;5008342;28;20455;-75
2021/12/03 08:05:09;;;;;;;34.63;11.40;;;4.60;55.30;;;;;;5011873;28;20901;-77
2021/12/03 08:07:35;;;;;;;26.53;9.93;;;4.60;56.30;;;;;;5007917;28;20405;-76
2021/12/03 08:10:02;;;;;;;26.70;10.05;;;4.60;56.50;;;;;;5007884;28;20407;-76
2021/12/03 08:12:28;;;;;;;31.38;10.13;;;4.60;56.90;;;;;;5008530;28;20408;-76
2021/12/03 08:14:53;;;;;;;22.45;9.98;;;4.70;56.30;;;;;;4999965;28;20454;-76
2021/12/03 08:17:19;;;;;;;35.05;10.57;;;4.60;55.80;;;;;;5001986;28;20951;-76
2021/12/03 08:19:44;;;;;;;29.80;9.32;;;4.70;54.90;;;;;;5013812;28;20424;-75
2021/12/03 08:22:10;;;;;;;24.17;8.40;;;4.70;51.80;;;;;;5012951;28;20504;-76
2021/12/03 08:24:36;;;;;;;23.10;8.53;;;4.70;51.00;;;;;;5012399;28;20499;-74
2021/12/03 08:27:01;;;;;;;25.13;8.53;;;4.80;50.30;;;;;;5011841;28;20404;-73
2021/12/03 08:29:27;;;;;;;33.33;8.70;;;4.90;49.40;;;;;;5010869;28;20424;-73
2021/12/03 08:31:53;;;;;;;23.85;8.90;;;4.90;48.70;;;;;;5013152;28;20407;-72
2021/12/03 08:34:18;;;;;;;34.37;8.83;;;4.90;49.00;;;;;;5009408;28;20405;-73
2021/12/03 08:36:44;;;;;;;24.77;8.80;;;4.90;48.40;;;;;;5008398;28;20887;-75
2021/12/03 08:39:10;;;;;;;22.90;8.05;;;5.00;48.50;;;;;;5019701;28;20452;-75
2021/12/03 08:41:36;;;;;;;20.75;7.82;;;4.90;47.10;;;;;;5012102;28;20459;-74
2021/12/03 08:44:03;;;;;;;22.20;9.30;;;5.30;45.70;;;;;;5013481;28;20397;-74
2021/12/03 08:46:33;;;;;;;20.83;7.35;;;5.00;44.80;;;;;;5013499;28;20405;-76
2021/12/03 08:49:08;;;;;;;17.98;6.93;;;5.10;43.00;;;;;;5013733;28;20392;-75
2021/12/03 08:51:50;;;;;;;27.80;7.40;;;5.20;42.90;;;;;;5008815;28;20892;-74
2021/12/03 08:57:00;;;;;;;32.35;7.40;;;5.10;42.70;;;;;;5015591;28;20423;-76
2021/12/03 08:59:26;;;;;;;32.17;7.53;;;5.10;42.60;;;;;;5016618;28;20889;-75
2021/12/03 09:01:51;;;;;;;21.15;7.15;;;5.20;42.50;;;;;;5011678;28;20754;-75
2021/12/03 09:04:17;;;;;;;26.27;7.13;;;5.30;41.90;;;;;;5013452;28;20429;-75
2021/12/03 09:06:43;;;;;;;22.77;7.13;;;5.30;40.40;;;;;;5008694;28;20392;-76
2021/12/03 09:09:08;;;;;;;30.40;7.68;;;5.50;40.90;;;;;;5012760;28;20389;-75
2021/12/03 09:11:36;;;;;;;24.00;6.70;;;5.50;40.10;;;;;;5012124;28;20405;-76
2021/12/03 09:14:06;;;;;;;23.55;8.13;;;5.50;39.90;;;;;;5011351;28;20936;-75
2021/12/03 09:16:32;;;;;;;22.50;8.20;;;5.50;40.40;;;;;;4996466;28;20435;-74
2021/12/03 09:18:59;;;;;;;20.15;7.65;;;5.50;40.30;;;;;;5005885;28;20512;-76
2021/12/03 09:21:29;;;;;;;22.70;6.82;;;5.60;40.90;;;;;;5008633;28;20400;-75
2021/12/03 09:24:14;;;;;;;25.63;7.57;;;5.60;39.40;;;;;;5008417;28;20412;-76
2021/12/03 09:26:42;;;;;;;24.20;7.20;;;5.50;40.00;;;;;;5006132;28;20478;-73
2021/12/03 09:29:11;;;;;;;27.48;7.40;;;5.60;40.00;;;;;;5011070;28;20691;-75
2021/12/03 09:31:41;;;;;;;23.45;7.97;;;5.70;40.60;;;;;;5009904;28;20401;-75
2021/12/03 09:34:10;;;;;;;22.77;7.32;;;5.70;39.80;;;;;;5012974;28;20432;-74
2021/12/03 09:36:40;;;;;;;27.17;7.93;;;5.80;39.50;;;;;;5011599;28;20407;-74
2021/12/03 09:39:06;;;;;;;29.35;7.28;;;5.80;39.60;;;;;;5011937;28;20393;-76
2021/12/03 09:41:32;;;;;;;26.85;7.15;;;5.90;39.50;;;;;;5009705;28;20462;-74
2021/12/03 09:43:59;;;;;;;17.93;6.53;;;5.80;39.20;;;;;;5008004;28;20824;-74
2021/12/03 09:46:27;;;;;;;18.00;6.35;;;5.80;39.10;;;;;;5012317;28;20475;-73
2021/12/03 09:51:40;;;;;;;20.27;7.72;;;5.90;39.40;;;;;;5009529;28;20404;-76
2021/12/03 09:56:54;;;;;;;18.88;7.03;;;6.00;38.50;;;;;;4994181;28;20382;-75
2021/12/03 10:02:29;;;;;;;28.00;7.00;;;6.00;38.20;;;;;;4977873;28;20902;-75
2021/12/03 10:05:32;;;;;;;23.60;6.03;;;6.00;38.10;;;;;;5008223;28;20810;-75
2021/12/03 10:13:37;;;;;;;27.58;7.10;;;6.20;37.60;;;;;;5017168;28;20385;-76
2021/12/03 10:18:52;;;;;;;23.77;7.07;;;6.20;37.70;;;;;;5016576;28;20408;-74
2021/12/03 10:22:01;;;;;;;17.40;6.60;;;6.30;37.30;;;;;;5013184;28;20404;-75
2021/12/03 10:36:37;;;;;;;14.40;5.20;;;6.30;35.90;;;;;;5010274;28;20861;-72
2021/12/03 10:39:18;;;;;;;20.17;5.40;;;6.40;35.30;;;;;;5010701;28;20388;-73
2021/12/03 10:42:12;;;;;;;18.45;5.57;;;6.30;35.40;;;;;;5011778;28;20388;-73
2021/12/03 10:45:22;;;;;;;25.75;6.28;;;6.40;36.00;;;;;;5009903;28;20831;-74
2021/12/03 11:36:40;;;;;;;12.00;4.70;;;6.40;34.80;;;;;;5012467;28;20416;-75
2021/12/03 12:15:23;;;;;;;18.58;4.57;;;6.70;32.50;;;;;;5008855;28;20467;-74
2021/12/03 12:42:05;;;;;;;14.65;4.18;;;7.10;32.30;;;;;;5009839;28;20847;-74
2021/12/03 12:56:32;;;;;;;12.50;4.75;;;7.30;31.60;;;;;;5009897;28;21042;-73
2021/12/03 13:11:36;;;;;;;11.35;4.30;;;7.40;32.10;;;;;;5012027;28;20475;-73
2021/12/03 13:13:54;;;;;;;12.45;3.55;;;7.40;31.90;;;;;;5006375;28;20389;-73
2021/12/03 13:34:28;;;;;;;9.82;3.15;;;7.40;31.40;;;;;;5013745;28;20404;-73
2021/12/03 13:59:12;;;;;;;6.93;3.20;;;7.10;31.20;;;;;;5013504;28;20503;-75
2021/12/03 14:04:59;;;;;;;11.27;3.78;;;6.90;31.30;;;;;;5011311;28;20488;-74
2021/12/03 14:07:29;;;;;;;6.40;2.77;;;6.90;31.70;;;;;;5012959;28;20467;-75
2021/12/03 14:37:19;;;;;;;6.78;3.53;;;6.70;33.00;;;;;;5012087;28;20420;-73
2021/12/03 14:45:15;;;;;;;5.13;2.60;;;6.60;34.40;;;;;;5010681;28;20432;-74
2021/12/03 14:47:57;;;;;;;8.65;3.40;;;6.50;33.80;;;;;;5007385;28;20423;-75
2021/12/03 14:53:32;;;;;;;9.00;3.80;;;6.50;35.00;;;;;;5006301;28;20483;-74
2021/12/03 14:56:09;;;;;;;4.73;3.40;;;6.40;36.90;;;;;;5010843;28;20437;-71
2021/12/03 14:58:49;;;;;;;5.38;3.20;;;6.30;38.40;;;;;;5008108;28;20491;-73
2021/12/03 15:04:01;;;;;;;7.13;3.60;;;6.10;39.90;;;;;;5007432;28;20435;-73
2021/12/03 15:06:46;;;;;;;8.38;3.38;;;6.00;41.20;;;;;;5005397;28;20768;-73
2021/12/03 15:09:19;;;;;;;6.22;3.60;;;6.00;41.70;;;;;;4993910;28;20481;-74
2021/12/03 15:12:05;;;;;;;6.30;3.33;;;6.00;42.10;;;;;;5000007;28;20533;-76
2021/12/03 15:25:27;;;;;;;5.20;3.05;;;5.80;44.60;;;;;;5010978;28;20402;-73
2021/12/03 15:28:21;;;;;;;6.07;3.50;;;5.80;45.90;;;;;;5006007;28;20426;-73
2021/12/03 15:30:59;;;;;;;7.07;3.67;;;5.70;47.40;;;;;;5010435;28;20407;-74
2021/12/03 15:33:47;;;;;;;6.30;3.63;;;5.70;47.60;;;;;;5004086;28;20892;-73
2021/12/03 15:36:33;;;;;;;8.57;4.20;;;5.70;46.90;;;;;;5004335;28;20882;-74
2021/12/03 16:03:35;;;;;;;8.35;4.85;;;5.80;47.40;;;;;;5004009;28;20504;-73
2021/12/03 16:08:40;;;;;;;8.88;4.32;;;5.80;47.30;;;;;;5010599;28;20458;-72
2021/12/03 16:11:21;;;;;;;7.70;4.78;;;5.80;47.30;;;;;;5008647;28;20396;-73
2021/12/03 16:19:22;;;;;;;7.90;3.88;;;5.70;47.60;;;;;;5003381;28;20813;-73
2021/12/03 16:54:07;;;;;;;9.90;5.60;;;5.60;55.00;;;;;;5009939;28;20409;-74
2021/12/03 16:56:35;;;;;;;10.40;5.30;;;5.60;56.10;;;;;;5009737;28;20439;-74
2021/12/03 16:59:01;;;;;;;10.67;5.67;;;5.60;55.70;;;;;;5015491;28;20910;-73
2021/12/03 17:48:46;;;;;;;9.50;5.47;;;5.30;71.40;;;;;;5009383;28;20455;-74
2021/12/03 17:58:42;;;;;;;10.05;4.60;;;5.20;75.50;;;;;;5008201;28;20468;-74
2021/12/03 18:01:20;;;;;;;9.93;5.70;;;5.30;75.60;;;;;;5005746;28;20467;-74
2021/12/03 18:03:58;;;;;;;8.00;5.07;;;5.30;76.60;;;;;;5009151;28;20409;-74
2021/12/03 18:09:28;;;;;;;4.93;4.43;;;5.30;76.30;;;;;;5012152;28;20397;-75
2021/12/03 18:12:51;;;;;;;6.53;4.60;;;5.30;78.20;;;;;;5011598;28;20407;-75
2021/12/03 18:52:50;;;;;;;9.80;6.40;;;5.00;91.10;;;;;;5004171;28;20449;-75
2021/12/03 18:57:27;;;;;;;10.13;6.65;;;5.10;92.20;;;;;;5011285;28;20427;-76
2021/12/03 19:00:03;;;;;;;12.50;6.60;;;5.10;91.60;;;;;;5013071;28;20404;-76
2021/12/03 19:02:29;;;;;;;11.65;6.90;;;5.10;93.40;;;;;;5011995;28;20467;-75
2021/12/03 19:05:02;;;;;;;9.35;5.93;;;5.00;94.60;;;;;;5016044;28;20585;-76
2021/12/03 19:07:33;;;;;;;11.23;6.45;;;5.10;93.20;;;;;;5016343;28;20497;-74
2021/12/03 19:10:04;;;;;;;5.90;5.30;;;5.10;91.60;;;;;;5011763;28;20452;-76
2021/12/03 19:12:32;;;;;;;10.85;5.57;;;5.20;91.30;;;;;;5011190;28;20428;-76
2021/12/03 19:15:00;;;;;;;10.95;5.88;;;5.10;87.70;;;;;;5011614;28;20403;-73
2021/12/03 19:17:28;;;;;;;9.75;6.40;;;5.10;88.30;;;;;;5012595;28;20397;-74
2021/12/03 19:19:58;;;;;;;10.93;6.07;;;5.10;87.50;;;;;;5010675;28;20886;-73
2021/12/03 19:22:23;;;;;;;8.13;5.80;;;5.10;85.80;;;;;;5009291;28;20416;-75
2021/12/03 19:24:55;;;;;;;15.75;6.50;;;5.20;85.50;;;;;;5012004;28;20424;-75
2021/12/03 19:27:24;;;;;;;10.50;6.38;;;5.20;84.50;;;;;;5012007;28;20428;-74
2021/12/03 19:29:50;;;;;;;9.43;6.17;;;5.20;86.20;;;;;;5011309;28;20428;-75
2021/12/03 19:32:16;;;;;;;10.00;5.90;;;5.20;84.00;;;;;;5009337;28;20396;-75
2021/12/03 19:34:42;;;;;;;9.10;5.50;;;5.30;81.40;;;;;;5012578;28;20790;-75
2021/12/03 19:37:08;;;;;;;8.57;5.45;;;5.30;80.90;;;;;;5014235;28;20494;-75
2021/12/03 19:39:36;;;;;;;7.27;4.90;;;5.40;75.30;;;;;;5010379;28;20441;-75
2021/12/03 19:42:07;;;;;;;9.02;5.28;;;5.40;73.70;;;;;;5011889;28;20393;-75
2021/12/03 19:44:44;;;;;;;8.48;5.05;;;5.40;73.40;;;;;;5011679;28;20781;-75
2021/12/03 19:47:12;;;;;;;5.40;4.50;;;5.40;72.30;;;;;;5011982;28;20392;-76